map of MGF home
Great Circle Mapper logo
MGF - Airport
Location
City:  Maringá, Paraná, Brazil
Name:Aeroporto Regional de Maringá
ICAO / IATA:SBMG / MGF

Details
Type:Airport (Aerodrome, Airfield)
Use:Public/Civil
Latitude:23°28'35"S (-23.476391)
Longitude:52°00'59"W (-52.016405)
Datum:WGS 1984
Elevation:1788 ft (545 m)
Runways:1
Longest:6890 × 147 ft (2100 × 45 m), paved

Time
Time Zone:UTC-3 (DST-2)
Local Time:

Weather
METAR:SBMG 030100Z 09003KT 9999 FEW030 23/18 Q1011

Related Locations
Nearby:
Farthest:MMY: 12251 mi / 19716 km
Miyakojima, Ryuku, JP

Find:

   beyond  
but within

Other Information
Maps:
NOTAMs:
Links:
Sources:

  
flag of Brazil
flag of Paraná
  

Sectional Chart

Flight Planning
at skyvector.com

Satellite Image

Google Maps Satellite View

 

Copyright © 2004-2014 Karl L. Swartz. All rights reserved.
The Great Circle Mapper name and logo are trademarks of the Great Circle Mapper.
All other trademarks mentioned herein belong to their respective owners.
Please see credits for attibutions and further copyright information.

  Follow gcmap on Facebook Follow gcmap on Twitter

hCard Microformat

Geo Microformat